createdAt,value
2022-10-25T00:01:47.134Z,2.40
2022-10-25T00:04:15.879Z,2.60
2022-10-25T00:06:43.628Z,2.50
2022-10-25T00:09:11.545Z,2.38
2022-10-25T00:11:39.099Z,2.63
2022-10-25T00:14:08.035Z,2.50
2022-10-25T00:16:38.108Z,2.55
2022-10-25T00:19:06.329Z,2.60
2022-10-25T00:24:00.995Z,2.50
2022-10-25T00:26:28.454Z,2.80
2022-10-25T00:28:56.191Z,2.67
2022-10-25T00:31:24.522Z,2.53
2022-10-25T00:33:52.215Z,2.40
2022-10-25T00:36:22.823Z,2.30
2022-10-25T00:38:51.071Z,2.45
2022-10-25T00:43:50.331Z,2.40
2022-10-25T00:46:24.317Z,2.65
2022-10-25T00:49:00.431Z,2.42
2022-10-25T00:51:55.895Z,2.47
2022-10-25T00:54:30.364Z,2.65
2022-10-25T00:57:04.327Z,2.80
2022-10-25T00:59:32.390Z,2.55
2022-10-25T01:02:00.485Z,2.45
2022-10-25T01:04:30.887Z,2.50
2022-10-25T01:06:59.455Z,3.13
2022-10-25T01:09:30.135Z,2.75
2022-10-25T01:11:57.535Z,2.70
2022-10-25T01:14:26.833Z,2.47
2022-10-25T01:17:11.534Z,2.88
2022-10-25T01:20:25.894Z,3.03
2022-10-25T01:23:10.334Z,2.40
2022-10-25T01:25:58.761Z,2.90
2022-10-25T01:28:35.352Z,2.33
2022-10-25T01:31:34.384Z,2.80
2022-10-25T01:34:11.288Z,2.95
2022-10-25T01:36:56.694Z,2.83
2022-10-25T01:39:40.596Z,2.88
2022-10-25T01:42:16.627Z,2.28
2022-10-25T01:45:15.463Z,2.20
2022-10-25T01:47:53.148Z,2.63
2022-10-25T01:50:31.048Z,2.17
2022-10-25T01:52:58.556Z,2.35
2022-10-25T01:55:34.889Z,2.00
2022-10-25T01:58:11.546Z,2.10
2022-10-25T02:00:59.070Z,2.63
2022-10-25T02:03:54.344Z,1.98
2022-10-25T02:06:34.498Z,2.53
2022-10-25T02:09:34.879Z,2.08
2022-10-25T02:12:07.238Z,2.50
2022-10-25T02:14:38.537Z,2.17
2022-10-25T02:17:17.647Z,2.38
2022-10-25T02:19:50.163Z,2.58
2022-10-25T02:22:21.032Z,2.13
2022-10-25T02:24:50.194Z,2.42
2022-10-25T02:27:20.361Z,2.60
2022-10-25T02:29:48.290Z,2.70
2022-10-25T02:32:15.984Z,2.40
2022-10-25T02:34:47.039Z,2.70
2022-10-25T02:37:14.623Z,2.53
2022-10-25T02:39:42.746Z,2.70
2022-10-25T02:42:10.259Z,2.55
2022-10-25T02:44:37.667Z,2.60
2022-10-25T02:47:05.121Z,2.70
2022-10-25T02:49:32.618Z,2.72
2022-10-25T02:52:00.140Z,2.65
2022-10-25T02:54:27.594Z,2.65
2022-10-25T02:56:55.063Z,2.72
2022-10-25T02:59:22.574Z,2.83
2022-10-25T03:01:50.080Z,2.83
2022-10-25T03:04:18.271Z,2.55
2022-10-25T03:09:12.962Z,2.53
2022-10-25T03:11:40.410Z,2.80
2022-10-25T03:14:07.913Z,2.88
2022-10-25T03:16:35.410Z,2.90
2022-10-25T03:19:03.072Z,3.22
2022-10-25T03:21:30.546Z,3.03
2022-10-25T03:23:57.959Z,3.22
2022-10-25T03:26:25.395Z,3.15
2022-10-25T03:28:52.854Z,3.00
2022-10-25T03:31:23.006Z,2.78
2022-10-25T03:33:51.167Z,2.95
2022-10-25T03:36:18.608Z,2.97
2022-10-25T03:38:46.039Z,2.92
2022-10-25T03:41:13.594Z,3.03
2022-10-25T03:43:40.986Z,3.10
2022-10-25T03:46:08.799Z,2.97
2022-10-25T03:48:36.315Z,3.00
2022-10-25T03:51:03.760Z,2.78
2022-10-25T03:53:31.388Z,2.60
2022-10-25T03:55:58.959Z,2.85
2022-10-25T03:58:26.390Z,2.97
2022-10-25T04:00:53.923Z,2.80
2022-10-25T04:03:21.416Z,3.03
2022-10-25T04:05:48.879Z,3.25
2022-10-25T04:08:16.282Z,3.35
2022-10-25T04:10:44.058Z,2.80
2022-10-25T04:13:11.467Z,2.83
2022-10-25T04:15:38.892Z,3.22
2022-10-25T04:18:06.348Z,3.08
2022-10-25T04:20:34.014Z,3.53
2022-10-25T04:23:01.391Z,3.05
2022-10-25T04:25:29.027Z,3.40
2022-10-25T04:27:58.771Z,3.00
2022-10-25T04:30:26.430Z,3.30
2022-10-25T04:32:53.836Z,3.15
2022-10-25T04:35:21.324Z,3.50
2022-10-25T04:37:49.358Z,3.15
2022-10-25T04:40:19.011Z,3.55
2022-10-25T04:42:48.791Z,3.03
2022-10-25T04:45:16.411Z,3.40
2022-10-25T04:47:43.818Z,3.63
2022-10-25T04:50:11.252Z,3.38
2022-10-25T04:52:38.625Z,2.90
2022-10-25T04:55:06.219Z,3.37
2022-10-25T04:57:33.734Z,3.22
2022-10-25T05:00:01.204Z,3.63
2022-10-25T05:02:28.971Z,3.33
2022-10-25T05:04:56.527Z,3.53
2022-10-25T05:07:23.956Z,3.88
2022-10-25T05:09:51.433Z,3.20
2022-10-25T05:12:18.841Z,3.15
2022-10-25T05:14:46.315Z,3.22
2022-10-25T05:17:13.710Z,2.92
2022-10-25T05:19:41.063Z,3.33
2022-10-25T05:22:08.900Z,3.10
2022-10-25T05:24:36.307Z,2.85
2022-10-25T05:27:04.794Z,3.47
2022-10-25T05:29:32.240Z,3.42
2022-10-25T05:31:59.931Z,3.00
2022-10-25T05:34:27.534Z,3.63
2022-10-25T05:36:55.226Z,3.00
2022-10-25T05:39:22.643Z,3.22
2022-10-25T05:41:50.247Z,3.60
2022-10-25T05:44:17.924Z,3.83
2022-10-25T05:46:45.650Z,3.50
2022-10-25T05:49:13.062Z,3.35
2022-10-25T05:51:40.495Z,3.23
2022-10-25T05:54:11.438Z,3.83
2022-10-25T05:56:39.800Z,3.95
2022-10-25T05:59:09.915Z,3.45
2022-10-25T06:01:39.387Z,3.05
2022-10-25T06:04:07.568Z,3.42
2022-10-25T06:06:36.182Z,3.50
2022-10-25T06:09:04.102Z,3.30
2022-10-25T06:11:31.860Z,3.00
2022-10-25T06:13:59.672Z,3.03
2022-10-25T06:16:27.392Z,2.92
2022-10-25T06:18:54.903Z,3.22
2022-10-25T06:21:30.194Z,3.00
2022-10-25T06:23:59.703Z,3.58
2022-10-25T06:26:30.118Z,3.00
2022-10-25T06:29:00.005Z,3.53
2022-10-25T06:31:28.467Z,3.60
2022-10-25T06:33:56.095Z,3.00
2022-10-25T06:36:24.949Z,3.45
2022-10-25T06:38:52.466Z,3.08
2022-10-25T06:41:20.894Z,3.50
2022-10-25T06:43:49.624Z,3.25
2022-10-25T06:46:24.475Z,3.22
2022-10-25T06:48:53.699Z,3.33
2022-10-25T06:51:22.081Z,3.55
2022-10-25T06:54:01.297Z,3.75
2022-10-25T06:56:29.344Z,4.15
2022-10-25T06:58:56.919Z,3.58
2022-10-25T07:01:25.848Z,3.70
2022-10-25T07:03:54.903Z,4.03
2022-10-25T07:06:28.211Z,4.03
2022-10-25T07:08:58.754Z,4.18
2022-10-25T07:11:27.907Z,3.95
2022-10-25T07:13:58.408Z,4.30
2022-10-25T07:16:26.919Z,3.90
2022-10-25T07:19:02.219Z,3.75
2022-10-25T07:21:31.300Z,3.33
2022-10-25T07:23:58.732Z,3.72
2022-10-25T07:26:32.585Z,3.65
2022-10-25T07:29:01.850Z,3.90
2022-10-25T07:31:35.420Z,3.38
2022-10-25T07:34:04.605Z,3.50
2022-10-25T07:36:32.044Z,4.10
2022-10-25T07:38:59.704Z,3.35
2022-10-25T07:41:27.295Z,3.60
2022-10-25T07:43:55.472Z,2.95
2022-10-25T07:46:23.846Z,3.20
2022-10-25T07:48:52.613Z,2.53
2022-10-25T07:51:20.419Z,2.70
2022-10-25T07:53:48.238Z,2.63
2022-10-25T07:56:22.307Z,2.42
2022-10-25T07:58:52.566Z,2.90
2022-10-25T08:01:22.701Z,2.50
2022-10-25T08:03:52.380Z,2.25
2022-10-25T08:06:22.036Z,2.20
2022-10-25T08:08:49.888Z,2.20
2022-10-25T08:11:17.657Z,2.67
2022-10-25T08:13:48.714Z,2.55
2022-10-25T08:16:16.335Z,2.97
2022-10-25T08:18:44.171Z,2.90
2022-10-25T08:21:11.603Z,2.72
2022-10-25T08:23:39.370Z,3.17
2022-10-25T08:26:07.075Z,3.10
2022-10-25T08:28:34.656Z,2.80
2022-10-25T08:31:04.192Z,3.22
2022-10-25T08:33:33.360Z,3.17
2022-10-25T08:36:02.050Z,3.00
2022-10-25T08:38:29.881Z,3.63
2022-10-25T08:41:10.198Z,3.58
2022-10-25T08:44:04.168Z,4.10
2022-10-25T08:46:43.727Z,3.50
2022-10-25T08:49:26.650Z,3.67
2022-10-25T08:51:56.462Z,3.47
2022-10-25T08:54:28.554Z,3.63
2022-10-25T08:57:23.599Z,2.97
2022-10-25T09:00:10.519Z,3.00
2022-10-25T09:02:51.551Z,3.40
2022-10-25T09:05:48.560Z,3.13
2022-10-25T09:08:28.196Z,2.73
2022-10-25T09:11:14.185Z,2.70
2022-10-25T09:14:03.694Z,3.00
2022-10-25T09:16:37.054Z,3.17
2022-10-25T09:19:15.915Z,3.22
2022-10-25T09:22:02.276Z,2.90
2022-10-25T09:24:43.901Z,2.78
2022-10-25T09:27:19.865Z,3.35
2022-10-25T09:30:05.013Z,3.35
2022-10-25T09:32:49.130Z,2.40
2022-10-25T09:35:51.560Z,2.88
2022-10-25T09:38:43.947Z,2.47
2022-10-25T09:41:26.123Z,3.08
2022-10-25T09:44:13.919Z,2.63
2022-10-25T09:46:58.022Z,3.00
2022-10-25T09:49:48.917Z,2.70
2022-10-25T09:52:33.368Z,3.42
2022-10-25T09:55:26.643Z,2.45
2022-10-25T09:57:54.787Z,3.20
2022-10-25T10:00:22.272Z,2.85
2022-10-25T10:02:49.858Z,3.13
2022-10-25T10:05:20.278Z,3.20
2022-10-25T10:07:49.835Z,3.00
2022-10-25T10:10:24.882Z,3.28
2022-10-25T10:13:01.543Z,3.10
2022-10-25T10:15:35.029Z,3.20
2022-10-25T10:18:22.600Z,2.90
2022-10-25T10:21:10.069Z,2.30
2022-10-25T10:23:43.870Z,2.53
2022-10-25T10:26:24.474Z,2.60
2022-10-25T10:29:17.832Z,2.22
2022-10-25T10:31:49.478Z,2.53
2022-10-25T10:34:24.979Z,2.50
2022-10-25T10:37:12.662Z,2.97
2022-10-25T10:39:51.770Z,2.78
2022-10-25T10:42:29.448Z,2.33
2022-10-25T10:45:03.391Z,2.25
2022-10-25T10:47:35.979Z,2.10
2022-10-25T10:50:20.329Z,2.20
2022-10-25T10:53:06.276Z,2.03
2022-10-25T10:55:37.331Z,1.95
2022-10-25T10:58:18.670Z,1.92
2022-10-25T11:01:13.668Z,1.80
2022-10-25T11:03:48.897Z,1.65
2022-10-25T11:06:30.118Z,1.95
2022-10-25T11:09:24.918Z,1.30
2022-10-25T11:12:14.805Z,1.40
2022-10-25T11:14:42.898Z,1.63
2022-10-25T11:17:46.594Z,1.70
2022-10-25T11:20:33.202Z,1.63
2022-10-25T11:23:16.671Z,1.55
2022-10-25T11:26:01.692Z,1.52
2022-10-25T11:28:37.599Z,1.60
2022-10-25T11:31:34.794Z,1.70
2022-10-25T11:34:32.844Z,1.25
2022-10-25T11:37:07.249Z,1.27
2022-10-25T11:39:58.831Z,1.70
2022-10-25T11:42:35.269Z,1.13
2022-10-25T11:45:21.401Z,1.08
2022-10-25T11:47:55.647Z,1.50
2022-10-25T11:50:40.989Z,1.30
2022-10-25T11:53:33.364Z,1.10
2022-10-25T11:56:14.699Z,1.35
2022-10-25T11:58:45.269Z,1.63
2022-10-25T12:01:38.255Z,1.30
2022-10-25T12:04:31.240Z,1.50
2022-10-25T12:07:25.050Z,1.90
2022-10-25T12:10:32.790Z,1.45
2022-10-25T12:13:11.048Z,1.75
2022-10-25T12:15:46.140Z,1.50
2022-10-25T12:18:35.414Z,1.30
2022-10-25T12:21:03.995Z,1.38
2022-10-25T12:23:40.711Z,1.63
2022-10-25T12:26:15.354Z,1.10
2022-10-25T12:28:45.520Z,1.10
2022-10-25T12:31:12.847Z,1.23
2022-10-25T12:33:46.333Z,0.97
2022-10-25T12:36:44.094Z,1.10
2022-10-25T12:41:50.838Z,1.00
2022-10-25T12:44:45.887Z,1.20
2022-10-25T12:47:44.284Z,1.42
2022-10-25T12:50:32.879Z,1.00
2022-10-25T12:53:31.393Z,1.02
2022-10-25T12:56:18.430Z,0.98
2022-10-25T12:59:07.044Z,1.10
2022-10-25T13:02:03.822Z,1.27
2022-10-25T13:04:38.756Z,1.25
2022-10-25T13:07:08.243Z,1.27
2022-10-25T13:09:37.827Z,1.70
2022-10-25T13:12:15.387Z,1.52
2022-10-25T13:14:50.666Z,1.95
2022-10-25T13:17:18.105Z,1.75
2022-10-25T13:19:54.445Z,1.83
2022-10-25T13:22:37.343Z,1.88
2022-10-25T13:25:14.365Z,1.95
2022-10-25T13:28:12.409Z,2.00
2022-10-25T13:30:43.391Z,1.75
2022-10-25T13:33:33.198Z,1.77
2022-10-25T13:36:03.339Z,1.63
2022-10-25T13:38:39.624Z,1.90
2022-10-25T13:41:10.124Z,1.95
2022-10-25T13:43:58.833Z,1.55
2022-10-25T13:46:31.592Z,1.58
2022-10-25T13:49:01.143Z,1.85
2022-10-25T13:51:31.848Z,2.13
2022-10-25T13:54:06.096Z,2.00
2022-10-25T13:56:47.595Z,2.20
2022-10-25T13:59:37.453Z,2.92
2022-10-25T14:02:19.220Z,1.80
2022-10-25T14:04:46.893Z,1.65
2022-10-25T14:07:46.302Z,8.07
2022-10-25T14:10:25.671Z,1.50
2022-10-25T14:13:00.058Z,1.70
2022-10-25T14:15:47.035Z,1.75
2022-10-25T14:18:21.875Z,1.70
2022-10-25T14:20:56.489Z,2.08
2022-10-25T14:23:30.207Z,2.00
2022-10-25T14:25:59.799Z,1.95
2022-10-25T14:28:29.405Z,1.73
2022-10-25T14:30:59.297Z,1.83
2022-10-25T14:33:40.889Z,1.77
2022-10-25T14:36:28.649Z,1.73
2022-10-25T14:39:17.634Z,1.70
2022-10-25T14:42:02.334Z,1.80
2022-10-25T14:44:45.721Z,1.63
2022-10-25T14:47:33.378Z,1.92
2022-10-25T14:50:02.195Z,1.83
2022-10-25T14:52:31.492Z,1.70
2022-10-25T14:55:02.853Z,1.88
2022-10-25T14:57:33.299Z,2.25
2022-10-25T15:00:03.395Z,1.80
2022-10-25T15:02:35.012Z,1.88
2022-10-25T15:05:04.585Z,2.00
2022-10-25T15:07:36.028Z,2.08
2022-10-25T15:12:34.500Z,2.08
2022-10-25T15:15:45.075Z,1.60
2022-10-25T15:18:36.002Z,1.80
2022-10-25T15:21:04.631Z,1.98
2022-10-25T15:23:32.927Z,1.70
2022-10-25T15:28:47.815Z,1.70
2022-10-25T15:31:21.290Z,1.58
2022-10-25T15:33:57.163Z,1.70
2022-10-25T15:36:27.706Z,1.58
2022-10-25T15:39:17.028Z,1.73
2022-10-25T15:41:44.692Z,2.03
2022-10-25T15:44:12.073Z,1.77
2022-10-25T15:46:40.294Z,1.90
2022-10-25T15:51:41.064Z,2.08
2022-10-25T15:54:17.702Z,1.90
2022-10-25T15:56:45.572Z,2.30
2022-10-25T15:59:13.976Z,1.88
2022-10-25T16:01:44.265Z,2.03
2022-10-25T16:04:17.000Z,2.13
2022-10-25T16:06:45.862Z,2.20
2022-10-25T16:09:13.292Z,2.40
2022-10-25T16:11:46.981Z,2.00
2022-10-25T16:14:25.280Z,1.90
2022-10-25T16:16:53.014Z,2.25
2022-10-25T16:19:21.891Z,2.42
2022-10-25T16:21:49.391Z,1.92
2022-10-25T16:24:16.858Z,2.13
2022-10-25T16:26:47.495Z,2.33
2022-10-25T16:29:24.164Z,2.53
2022-10-25T16:31:52.770Z,2.63
2022-10-25T16:34:20.757Z,2.50
2022-10-25T16:36:50.244Z,3.00
2022-10-25T16:39:17.964Z,3.35
2022-10-25T16:41:46.673Z,2.67
2022-10-25T16:44:17.438Z,3.05
2022-10-25T16:46:45.539Z,2.78
2022-10-25T16:49:12.919Z,3.25
2022-10-25T16:51:40.470Z,3.10
2022-10-25T16:54:09.830Z,2.53
2022-10-25T16:56:37.311Z,2.70
2022-10-25T16:59:04.739Z,3.00
2022-10-25T17:01:34.966Z,2.63
2022-10-25T17:04:04.608Z,2.60
2022-10-25T17:06:47.483Z,2.80
2022-10-25T17:09:15.018Z,2.78
2022-10-25T17:11:42.918Z,2.70
2022-10-25T17:16:47.723Z,3.22
2022-10-25T17:19:15.121Z,3.22
2022-10-25T17:21:42.678Z,2.90
2022-10-25T17:24:10.498Z,2.65
2022-10-25T17:26:38.171Z,2.92
2022-10-25T17:29:05.695Z,3.00
2022-10-25T17:31:36.059Z,2.97
2022-10-25T17:34:04.447Z,3.25
2022-10-25T17:36:32.414Z,3.47
2022-10-25T17:39:00.573Z,3.28
2022-10-25T17:41:28.056Z,3.38
2022-10-25T17:43:56.855Z,3.40
2022-10-25T17:46:28.987Z,3.63
2022-10-25T17:49:03.790Z,3.85
2022-10-25T17:51:32.960Z,4.40
2022-10-25T17:54:00.560Z,4.60
2022-10-25T17:56:28.925Z,4.43
2022-10-25T17:58:58.016Z,5.03
2022-10-25T18:01:27.636Z,5.40
2022-10-25T18:03:55.644Z,5.35
2022-10-25T18:06:25.190Z,4.70
2022-10-25T18:08:54.125Z,4.55
2022-10-25T18:11:23.562Z,4.80
2022-10-25T18:13:53.821Z,5.95
2022-10-25T18:16:26.743Z,4.30
2022-10-25T18:18:56.876Z,4.40
2022-10-25T18:21:25.100Z,4.65
2022-10-25T18:26:25.081Z,4.78
2022-10-25T18:28:53.132Z,5.00
2022-10-25T18:31:21.113Z,4.97
2022-10-25T18:33:48.692Z,4.43
2022-10-25T18:36:19.382Z,4.68
2022-10-25T18:38:48.335Z,4.85
2022-10-25T18:41:22.496Z,4.97
2022-10-25T18:43:50.733Z,5.07
2022-10-25T18:48:52.787Z,4.53
2022-10-25T18:51:22.067Z,4.05
2022-10-25T18:54:00.666Z,4.10
2022-10-25T18:56:29.290Z,4.13
2022-10-25T18:58:58.084Z,4.65
2022-10-25T19:01:31.995Z,4.47
2022-10-25T19:04:01.536Z,4.00
2022-10-25T19:06:29.579Z,4.20
2022-10-25T19:08:56.978Z,4.18
2022-10-25T19:11:24.467Z,4.43
2022-10-25T19:13:56.483Z,4.47
2022-10-25T19:16:24.258Z,3.60
2022-10-25T19:18:52.112Z,5.45
2022-10-25T19:21:22.112Z,3.67
2022-10-25T19:23:49.861Z,3.28
2022-10-25T19:28:46.615Z,3.60
2022-10-25T19:31:16.202Z,3.08
2022-10-25T19:33:48.187Z,3.00
2022-10-25T19:36:17.228Z,3.30
2022-10-25T19:38:45.365Z,2.75
2022-10-25T19:41:22.932Z,2.67
2022-10-25T19:43:51.152Z,3.10
2022-10-25T19:48:46.489Z,2.92
2022-10-25T19:51:19.671Z,3.00
2022-10-25T19:53:47.602Z,3.05
2022-10-25T19:56:21.272Z,3.28
2022-10-25T19:58:49.832Z,3.33
2022-10-25T20:01:27.160Z,3.20
2022-10-25T20:03:57.357Z,3.47
2022-10-25T20:06:35.599Z,3.70
2022-10-25T20:09:03.135Z,3.50
2022-10-25T20:11:31.450Z,3.05
2022-10-25T20:14:00.847Z,3.55
2022-10-25T20:16:29.705Z,2.95
2022-10-25T20:18:59.619Z,3.70
2022-10-25T20:21:31.344Z,2.83
2022-10-25T20:24:06.289Z,2.97
2022-10-25T20:26:36.330Z,3.42
2022-10-25T20:29:18.462Z,3.25
2022-10-25T20:31:49.770Z,3.10
2022-10-25T20:34:18.736Z,3.03
2022-10-25T20:36:47.486Z,3.45
2022-10-25T20:39:15.266Z,3.45
2022-10-25T20:41:42.792Z,3.22
2022-10-25T20:44:10.960Z,3.28
2022-10-25T20:46:38.412Z,3.13
2022-10-25T20:49:07.469Z,3.22
2022-10-25T20:51:35.218Z,2.97
2022-10-25T20:54:09.246Z,3.15
2022-10-25T20:56:37.303Z,3.30
2022-10-25T20:59:04.841Z,3.15
2022-10-25T21:01:32.666Z,3.40
2022-10-25T21:04:00.169Z,2.95
2022-10-25T21:06:27.574Z,3.17
2022-10-25T21:08:55.149Z,2.95
2022-10-25T21:11:22.612Z,2.97
2022-10-25T21:13:50.108Z,2.93
2022-10-25T21:16:17.523Z,2.95
2022-10-25T21:18:45.144Z,3.10
2022-10-25T21:21:19.991Z,3.42
2022-10-25T21:23:48.079Z,2.75
2022-10-25T21:26:16.167Z,2.95
2022-10-25T21:28:43.586Z,2.60
2022-10-25T21:31:15.672Z,3.30
2022-10-25T21:33:49.874Z,2.92
2022-10-25T21:36:19.835Z,3.25
2022-10-25T21:38:47.774Z,3.50
2022-10-25T21:41:20.450Z,3.17
2022-10-25T21:43:49.819Z,3.10
2022-10-25T21:46:19.115Z,3.40
2022-10-25T21:48:47.928Z,3.20
2022-10-25T21:51:15.623Z,3.20
2022-10-25T21:53:43.659Z,3.38
2022-10-25T21:56:13.963Z,3.13
2022-10-25T21:58:44.534Z,2.83
2022-10-25T22:01:16.945Z,3.40
2022-10-25T22:03:44.623Z,3.05
2022-10-25T22:06:14.111Z,2.90
2022-10-25T22:08:41.823Z,3.30
2022-10-25T22:11:18.112Z,3.92
2022-10-25T22:13:46.160Z,3.60
2022-10-25T22:16:18.535Z,3.60
2022-10-25T22:19:07.857Z,3.88
2022-10-25T22:21:37.429Z,3.22
2022-10-25T22:24:08.316Z,3.80
2022-10-25T22:26:37.171Z,3.67
2022-10-25T22:29:05.514Z,3.60
2022-10-25T22:31:33.411Z,4.10
2022-10-25T22:34:03.293Z,3.85
2022-10-25T22:36:32.738Z,3.75
2022-10-25T22:39:00.334Z,3.63
2022-10-25T22:41:29.460Z,4.05
2022-10-25T22:43:57.863Z,3.60
2022-10-25T22:46:35.515Z,3.72
2022-10-25T22:49:08.384Z,3.72
2022-10-25T22:51:37.497Z,3.60
2022-10-25T22:54:05.178Z,3.42
2022-10-25T22:56:33.083Z,3.20
2022-10-25T22:59:03.472Z,3.42
2022-10-25T23:01:36.233Z,3.90
2022-10-25T23:04:06.812Z,3.28
2022-10-25T23:06:37.540Z,3.40
2022-10-25T23:09:08.911Z,3.17
2022-10-25T23:11:38.462Z,3.63
2022-10-25T23:14:07.354Z,2.92
2022-10-25T23:16:35.046Z,2.90
2022-10-25T23:19:02.787Z,3.90
2022-10-25T23:21:30.942Z,3.00
2022-10-25T23:23:59.827Z,3.70
2022-10-25T23:26:31.057Z,3.72
2022-10-25T23:28:59.535Z,3.65
2022-10-25T23:31:27.352Z,3.83
2022-10-25T23:33:57.216Z,3.33
2022-10-25T23:36:27.339Z,3.33
2022-10-25T23:38:56.046Z,3.75
2022-10-25T23:41:23.512Z,3.20
2022-10-25T23:43:51.209Z,3.75
2022-10-25T23:46:19.066Z,3.15
2022-10-25T23:48:46.618Z,3.40
2022-10-25T23:51:16.314Z,3.47
2022-10-25T23:53:44.110Z,3.67
2022-10-25T23:56:13.375Z,3.30
2022-10-25T23:58:41.208Z,3.22
